sensor_id;sensor_type;location;lat;lon;timestamp;pressure;altitude;pressure_sealevel;temperature;humidity
59831;BME280;45711;50.108;13.712;2023-03-14T02:59:09;95899.38;;;8.05;90.43
59831;BME280;45711;50.108;13.712;2023-03-14T03:01:35;95894.53;;;8.07;90.62
59831;BME280;45711;50.108;13.712;2023-03-14T03:04:01;95886.88;;;8.05;93.03
59831;BME280;45711;50.108;13.712;2023-03-14T03:06:40;95877.00;;;8.06;94.83
59831;BME280;45711;50.108;13.712;2023-03-14T03:09:15;95886.19;;;7.91;91.68
59831;BME280;45711;50.108;13.712;2023-03-14T03:11:49;95880.59;;;7.93;93.14
59831;BME280;45711;50.108;13.712;2023-03-14T03:14:31;95876.81;;;7.94;92.69
59831;BME280;45711;50.108;13.712;2023-03-14T03:17:05;95882.16;;;7.94;93.06
59831;BME280;45711;50.108;13.712;2023-03-14T03:20:04;95893.91;;;7.93;93.12
59831;BME280;45711;50.108;13.712;2023-03-14T03:28:20;95884.63;;;7.90;93.15
59831;BME280;45711;50.108;13.712;2023-03-14T03:29:10;95884.03;;;7.93;93.15
59831;BME280;45711;50.108;13.712;2023-03-14T03:35:02;95887.63;;;7.89;93.54
59831;BME280;45711;50.108;13.712;2023-03-14T03:37:37;95883.53;;;7.91;91.89
59831;BME280;45711;50.108;13.712;2023-03-14T03:40:25;95882.78;;;7.99;92.26
59831;BME280;45711;50.108;13.712;2023-03-14T03:42:56;95886.97;;;7.92;92.66
59831;BME280;45711;50.108;13.712;2023-03-14T03:45:25;95890.44;;;8.01;95.37
59831;BME280;45711;50.108;13.712;2023-03-14T03:47:56;95905.97;;;7.99;92.86
59831;BME280;45711;50.108;13.712;2023-03-14T03:50:43;95907.38;;;8.05;92.00
59831;BME280;45711;50.108;13.712;2023-03-14T03:53:15;95904.69;;;7.96;89.91
59831;BME280;45711;50.108;13.712;2023-03-14T03:55:44;95901.25;;;8.04;96.39
59831;BME280;45711;50.108;13.712;2023-03-14T03:58:24;95895.00;;;8.00;91.64
59831;BME280;45711;50.108;13.712;2023-03-14T04:00:52;95908.78;;;8.02;91.80
59831;BME280;45711;50.108;13.712;2023-03-14T04:03:27;95919.47;;;8.11;96.56
59831;BME280;45711;50.108;13.712;2023-03-14T04:06:08;95921.97;;;8.07;96.16
59831;BME280;45711;50.108;13.712;2023-03-14T04:08:36;95916.94;;;7.97;92.55
59831;BME280;45711;50.108;13.712;2023-03-14T04:11:17;95908.47;;;7.95;91.93
59831;BME280;45711;50.108;13.712;2023-03-14T04:13:52;95903.13;;;7.95;92.50
59831;BME280;45711;50.108;13.712;2023-03-14T04:16:32;95908.59;;;7.90;94.02
59831;BME280;45711;50.108;13.712;2023-03-14T04:19:08;95902.66;;;7.93;92.36
59831;BME280;45711;50.108;13.712;2023-03-14T04:21:35;95913.00;;;7.95;93.10
59831;BME280;45711;50.108;13.712;2023-03-14T04:24:17;95920.22;;;7.94;93.33
59831;BME280;45711;50.108;13.712;2023-03-14T04:27:03;95924.00;;;8.11;97.31
59831;BME280;45711;50.108;13.712;2023-03-14T04:29:43;95927.13;;;8.04;94.22
59831;BME280;45711;50.108;13.712;2023-03-14T04:33:23;95935.25;;;7.99;91.57
59831;BME280;45711;50.108;13.712;2023-03-14T04:36:33;95931.19;;;7.93;93.18
59831;BME280;45711;50.108;13.712;2023-03-14T10:15:54;95899.09;;;8.15;89.60
59831;BME280;45711;50.108;13.712;2023-03-14T11:13:26;95910.88;;;8.31;88.53
59831;BME280;45711;50.108;13.712;2023-03-14T11:19:43;95908.88;;;8.72;85.46
59831;BME280;45711;50.108;13.712;2023-03-14T16:53:32;95930.81;;;8.43;98.09
59831;BME280;45711;50.108;13.712;2023-03-14T16:55:58;95938.06;;;8.68;96.97
59831;BME280;45711;50.108;13.712;2023-03-14T16:58:24;95936.94;;;8.87;99.88
59831;BME280;45711;50.108;13.712;2023-03-14T17:00:50;95933.81;;;8.93;100.00
59831;BME280;45711;50.108;13.712;2023-03-14T17:03:16;95941.03;;;8.93;99.16
59831;BME280;45711;50.108;13.712;2023-03-14T19:56:16;96716.53;;;5.94;88.62
59831;BME280;45711;50.108;13.712;2023-03-14T19:58:44;96710.75;;;5.42;79.15
59831;BME280;45711;50.108;13.712;2023-03-14T20:01:09;96722.25;;;5.27;91.90
59831;BME280;45711;50.108;13.712;2023-03-14T20:03:37;96726.81;;;5.12;87.43
59831;BME280;45711;50.108;13.712;2023-03-14T20:06:03;96735.44;;;5.38;81.61
59831;BME280;45711;50.108;13.712;2023-03-14T20:08:29;96741.78;;;4.72;78.69
